createdAt,value
2018-12-23T00:01:50.056Z,93901.95
2018-12-23T00:16:52.629Z,93900.56
2018-12-23T00:31:56.241Z,93915.82
2018-12-23T00:46:59.934Z,93939.53
2018-12-23T01:02:04.208Z,93944.62
2018-12-23T01:17:07.046Z,93940.52
2018-12-23T01:32:10.265Z,93948.80
2018-12-23T01:47:12.982Z,93952.95
2018-12-23T02:02:15.556Z,93956.61
2018-12-23T02:17:18.400Z,93971.45
2018-12-23T02:32:21.222Z,93983.83
2018-12-23T02:47:25.168Z,93991.28
2018-12-23T03:02:29.563Z,93968.81
2018-12-23T03:17:33.144Z,93927.30
2018-12-23T03:32:38.183Z,93889.33
2018-12-23T03:47:41.028Z,93876.19
2018-12-23T04:02:44.320Z,93925.33
2018-12-23T04:17:47.681Z,93962.95
2018-12-23T04:32:53.635Z,93959.86
2018-12-23T04:47:57.539Z,93940.87
2018-12-23T05:03:00.495Z,93966.38
2018-12-23T05:18:03.056Z,93981.56
2018-12-23T05:33:05.613Z,93981.67
2018-12-23T05:48:08.471Z,93973.86
2018-12-23T06:03:11.068Z,94005.48
2018-12-23T06:18:15.116Z,94034.05
2018-12-23T06:33:20.677Z,94047.37
2018-12-23T06:48:23.232Z,94043.13
2018-12-23T07:03:25.776Z,94082.34
2018-12-23T07:18:31.746Z,94099.69
2018-12-23T07:33:34.292Z,94105.70
2018-12-23T07:48:36.838Z,94111.27
2018-12-23T08:03:39.393Z,94124.70
2018-12-23T08:18:42.777Z,94100.16
2018-12-23T08:33:45.630Z,94111.14
2018-12-23T08:48:49.122Z,94123.13
2018-12-23T09:03:51.673Z,94105.01
2018-12-23T09:18:54.547Z,94101.66
2018-12-23T09:33:58.028Z,94102.59
2018-12-23T09:49:02.217Z,94082.54
2018-12-23T10:04:05.498Z,94070.59
2018-12-23T10:19:08.059Z,94064.20
2018-12-23T10:34:10.935Z,94049.25
2018-12-23T10:49:13.506Z,94045.76
2018-12-23T11:04:16.451Z,94059.62
2018-12-23T11:19:20.532Z,94102.78
2018-12-23T11:34:23.498Z,94120.38
2018-12-23T11:49:26.287Z,94112.34
2018-12-23T12:04:30.498Z,94147.16
2018-12-23T12:19:34.101Z,94175.86
2018-12-23T12:34:36.653Z,94203.92
2018-12-23T12:49:39.813Z,94219.69
2018-12-23T13:04:43.286Z,94207.51
2018-12-23T13:19:46.141Z,94200.84
2018-12-23T13:34:49.007Z,94189.59
2018-12-23T14:21:08.204Z,94200.68
2018-12-23T14:36:11.043Z,94195.31
2018-12-23T14:51:14.395Z,94182.04
2018-12-23T15:06:17.281Z,94190.16
2018-12-23T15:21:20.170Z,94166.94
2018-12-23T15:36:24.449Z,94196.36
2018-12-23T15:51:27.072Z,94206.99
2018-12-23T16:06:30.693Z,94227.98
2018-12-23T16:21:33.594Z,94230.31
2018-12-23T16:36:37.297Z,94258.59
2018-12-23T16:51:40.131Z,94269.91
2018-12-23T17:06:42.746Z,94278.15
2018-12-23T17:21:45.923Z,94289.58
2018-12-23T17:36:48.752Z,94285.84
2018-12-23T17:51:51.915Z,94280.62
2018-12-23T18:06:54.503Z,94276.77
2018-12-23T18:21:57.300Z,94273.03
2018-12-23T18:37:01.026Z,94230.84
2018-12-23T18:52:03.811Z,94223.57
2018-12-23T19:07:06.389Z,94212.95
2018-12-23T19:22:17.434Z,94193.44
2018-12-23T19:37:32.021Z,94187.78
2018-12-23T19:52:48.615Z,94211.72
2018-12-23T20:08:01.723Z,94197.08
2018-12-23T20:23:19.589Z,94169.11
2018-12-23T20:38:27.238Z,94165.23
2018-12-23T21:09:22.714Z,94189.86
2018-12-23T21:24:38.153Z,94181.59
2018-12-23T21:39:52.501Z,94162.99
2018-12-23T22:11:01.814Z,94149.75
2018-12-23T22:26:04.378Z,94153.72
2018-12-23T22:41:06.940Z,94134.41
2018-12-23T22:56:11.398Z,94105.61
2018-12-23T23:11:16.187Z,94092.84
2018-12-23T23:26:22.110Z,94089.91
2018-12-23T23:41:24.669Z,94056.86
2018-12-23T23:56:27.629Z,94048.52
